Latest Weather Observations for Hobart

IDT60801

Issued at 2:01 pm EST Thursday 25 April 2019 (issued every 10 minutes, with the page automatically refreshed every 10 minutes)

About weather observations | Map of weather stations | Latest weather observations for TAS | Other Formats
Station Details ID: 094029 Name: HOBART (ELLERSLIE ROAD) Lat: -42.89 Lon: 147.33 Height: 50.5 m
Data from the previous 72 hours. | See also: Recent months at Hobart
Date/Time
EST
Temp
°C
App
Temp
°C
Dew
Point
°C
Rel
Hum
%
Delta-T
°C
Wind Press
QNH
hPa
Press
MSL
hPa
Rain since
9am
mm
Dir  Spd
km/h
Gust
km/h
Spd
kts
Gust
kts
25/02:00pm 18.1 11.2 4.7 41 6.4 NW 30 43 16 23 1007.3 1007.3 0.0
25/01:30pm 18.7 12.1 4.1 38 6.9 NW 28 52 15 28 1008.0 1008.0 0.0
25/01:00pm 18.0 10.6 4.2 40 6.6 WNW 32 52 17 28 1008.6 1008.6 0.0
25/12:40pm 17.4 10.7 3.7 40 6.4 NW 28 50 15 27 1009.0 1009.0 0.0
25/12:30pm 18.3 12.6 4.8 41 6.5 NW 24 46 13 25 1009.1 1009.1 0.0
25/12:27pm 17.6 11.1 4.6 42 6.2 NW 28 46 15 25 1009.2 1009.2 0.0
25/12:00pm 15.7 10.7 3.8 45 5.5 NW 19 32 10 17 1010.1 1010.1 0.0
25/11:32am 15.5 8.5 3.9 46 5.4 NW 30 48 16 26 1010.7 1010.6 0.0
25/11:30am 15.5 8.0 3.6 45 5.5 NW 32 48 17 26 1010.7 1010.6 0.0
25/11:16am 15.8 9.1 3.6 44 5.6 NW 28 54 15 29 1011.0 1010.9 0.0
25/11:00am 16.2 9.9 3.9 44 5.7 NW 26 43 14 23 1011.1 1011.0 0.0
25/10:30am 16.2 8.9 4.3 45 5.6 NW 32 56 17 30 1011.2 1011.1 0.0
25/10:00am 15.1 8.2 4.8 50 4.8 WNW 30 48 16 26 1011.2 1011.1 0.0
25/09:30am 15.1 8.0 5.3 52 4.6 NNW 32 50 17 27 1011.1 1011.0 0.0
25/09:00am 15.3 9.1 6.1 54 4.4 NNW 28 54 15 29 1011.0 1010.9 0.0
25/08:53am 15.1 9.0 6.4 56 4.2 NNW 28 54 15 29 1011.1 1011.0 0.0
25/08:30am 15.1 9.7 6.4 56 4.2 N 24 37 13 20 1011.3 1011.3 0.0
25/08:00am 15.1 9.6 6.1 55 4.3 N 24 37 13 20 1010.9 1010.8 0.0
25/07:30am 14.6 9.4 5.4 54 4.4 NE 22 39 12 21 1010.8 1010.7 0.0
25/07:00am 14.2 9.8 5.0 54 4.3 NNE 17 28 9 15 1010.5 1010.4 0.0
25/06:30am 14.3 9.3 4.6 52 4.5 NNE 20 33 11 18 1010.6 1010.5 0.0
25/06:00am 14.1 9.6 4.4 52 4.5 NNE 17 32 9 17 1010.1 1010.1 0.0
25/05:30am 14.1 7.5 4.1 51 4.6 NNE 28 44 15 24 1009.8 1009.8 0.0
25/05:12am 14.2 7.8 3.4 48 4.9 N 26 56 14 30 1009.6 1009.6 0.0
25/05:00am 14.0 9.3 3.2 48 4.9 NNE 17 32 9 17 1009.6 1009.6 0.0
25/04:30am 14.3 9.5 2.5 45 5.2 NW 17 41 9 22 1009.3 1009.3 0.0
25/04:00am 14.0 8.2 2.3 45 5.2 WNW 22 57 12 31 1009.1 1009.1 0.0
25/03:55am 14.3 6.6 2.2 44 5.3 WNW 32 57 17 31 1009.0 1009.0 0.0
25/03:30am 14.3 4.6 3.7 49 4.8 W 44 69 24 37 1008.9 1008.9 0.0
25/03:00am 14.5 7.3 5.0 53 4.5 WNW 32 70 17 38 1009.1 1009.1 0.0
25/02:30am 14.7 6.5 4.7 51 4.7 WNW 37 67 20 36 1008.6 1008.6 0.0
25/02:00am 14.9 6.6 4.0 48 5.0 WNW 37 72 20 39 1008.5 1008.5 0.0
25/01:30am 15.4 7.6 4.8 49 5.0 WNW 35 61 19 33 1008.8 1008.8 0.0
25/01:12am 15.7 8.5 5.0 49 5.1 WNW 32 65 17 35 1008.6 1008.6 0.0
25/01:00am 15.6 9.4 6.3 54 4.5 WNW 28 46 15 25 1009.0 1009.0 0.0
25/12:53am 15.7 9.6 6.7 55 4.4 WNW 28 50 15 27 1008.8 1008.8 0.0
25/12:30am 15.6 10.9 6.1 53 4.6 WNW 20 43 11 23 1008.6 1008.6 0.0
25/12:00am 15.5 6.6 6.8 56 4.3 WNW 43 70 23 38 1008.3 1008.3 0.0
 
Date/Time
EST
Temp
°C
App
Temp
°C
Dew
Point
°C
Rel
Hum
%
Delta-T
°C
Wind Press
QNH
hPa
Press
MSL
hPa
Rain since
9am
mm
Dir  Spd
km/h
Gust
km/h
Spd
kts
Gust
kts
24/11:30pm 15.4 8.1 7.2 58 4.1 WNW 35 67 19 36 1009.2 1009.2 0.0
24/11:00pm 15.7 8.0 7.0 56 4.3 WNW 37 56 20 30 1009.5 1009.5 0.0
24/10:37pm 16.0 9.9 6.4 53 4.7 NW 28 46 15 25 1009.9 1009.9 0.0
24/10:30pm 15.5 11.5 6.5 55 4.4 NW 17 41 9 22 1010.0 1010.0 0.0
24/10:00pm 15.6 10.6 6.6 55 4.4 NW 22 43 12 23 1010.4 1010.3 0.0
24/09:30pm 15.6 12.7 6.6 55 4.4 NNW 11 22 6 12 1011.1 1011.0 0.0
24/09:00pm 15.8 9.7 6.5 54 4.6 NW 28 44 15 24 1011.2 1011.1 0.0
24/08:30pm 15.8 10.0 6.3 53 4.6 NW 26 43 14 23 1011.6 1011.6 0.0
24/08:00pm 15.4 11.2 5.6 52 4.7 NNW 17 30 9 16 1011.9 1011.9 0.0
24/07:31pm 15.9 9.5 5.2 49 5.1 NW 28 46 15 25 1012.5 1012.5 0.0
24/07:30pm 15.9 9.1 5.2 49 5.1 NW 30 46 16 25 1012.6 1012.6 0.0
24/07:00pm 15.4 10.3 4.2 47 5.2 NW 20 37 11 20 1012.9 1012.9 0.0
24/06:39pm 15.6 8.2 4.0 46 5.4 NNW 32 50 17 27 1012.8 1012.8 0.0
24/06:30pm 15.9 7.9 4.0 45 5.5 NNW 35 52 19 28 1012.8 1012.8 0.0
24/06:27pm 15.9 8.3 3.7 44 5.6 NNW 33 52 18 28 1012.9 1012.9 0.0
24/06:00pm 16.2 10.1 4.6 46 5.5 NW 26 35 14 19 1013.2 1013.2 0.0
24/05:30pm 17.0 11.1 5.9 48 5.4 NW 26 44 14 24 1013.3 1013.3 0.0
24/05:00pm 17.3 12.9 6.5 49 5.3 NW 19 32 10 17 1013.2 1013.2 0.0
24/04:30pm 17.8 13.2 6.7 48 5.5 NW 20 35 11 19 1013.6 1013.6 0.0
24/04:00pm 18.2 14.7 7.0 48 5.6 NNW 15 24 8 13 1013.9 1013.9 0.0
24/03:30pm 18.5 14.6 7.0 47 5.8 NNW 17 26 9 14 1014.3 1014.3 0.0
24/03:00pm 18.7 14.5 7.5 48 5.7 NNW 19 26 10 14 1014.8 1014.8 0.0
24/02:30pm 18.0 12.8 7.4 50 5.4 NNW 24 33 13 18 1015.1 1015.1 0.0
24/02:00pm 18.8 13.7 7.6 48 5.7 NNW 24 37 13 20 1015.7 1015.7 0.0
24/01:30pm 18.9 14.3 8.3 50 5.5 NW 22 32 12 17 1016.2 1016.2 0.0
24/01:00pm 18.3 13.4 8.3 52 5.1 NW 24 35 13 19 1016.8 1016.8 0.0
24/12:30pm 18.0 13.9 8.8 55 4.8 NW 20 30 11 16 1017.1 1017.1 0.0
24/12:00pm 17.5 13.4 8.6 56 4.6 NNW 20 30 11 16 1017.9 1017.9 0.0
24/11:30am 15.5 11.4 8.7 64 3.5 N 20 30 11 16 1018.7 1018.7 0.0
24/11:00am 15.2 11.8 9.1 67 3.1 NNW 17 28 9 15 1019.3 1019.3 0.0
24/10:30am 14.4 11.5 9.6 73 2.5 NNW 15 26 8 14 1019.8 1019.8 0.0
24/10:00am 13.7 9.8 9.4 75 2.2 NNW 20 26 11 14 1020.3 1020.3 0.0
24/09:30am 13.6 10.7 9.8 78 2.0 NNW 15 20 8 11 1020.8 1020.8 0.0
24/09:00am 12.6 10.1 9.8 83 1.4 NW 13 19 7 10 1021.2 1021.2 0.0
24/08:30am 11.5 9.3 9.4 87 1.1 NNW 11 20 6 11 1021.4 1021.4 0.0
24/08:00am 11.3 8.7 9.2 87 1.0 NNW 13 19 7 10 1021.7 1021.7 0.0
24/07:30am 10.7 9.1 8.8 88 0.9 NW 7 13 4 7 1021.8 1021.8 0.0
24/07:00am 10.2 8.2 8.5 89 0.8 NNW 9 15 5 8 1021.9 1021.9 0.0
24/06:30am 10.2 8.5 8.5 89 0.8 NNW 7 11 4 6 1022.0 1022.0 0.0
24/06:00am 10.2 8.2 8.5 89 0.8 NNW 9 15 5 8 1022.4 1022.4 0.0
24/05:30am 10.5 8.5 8.6 88 0.9 NW 9 11 5 6 1022.6 1022.6 0.0
24/05:00am 10.3 7.4 8.2 87 1.0 W 13 15 7 8 1022.8 1022.8 0.0
24/04:30am 11.3 8.6 8.9 85 1.2 WSW 13 15 7 8 1022.9 1022.9 0.0
24/04:00am 10.6 8.5 8.2 85 1.2 W 9 11 5 6 1023.0 1023.0 0.0
24/03:30am 11.2 9.7 8.4 83 1.4 WNW 6 9 3 5 1023.0 1023.0 0.0
24/03:00am 11.3 9.8 8.3 82 1.5 WNW 6 9 3 5 1023.0 1023.0 0.0
24/02:30am 11.9 9.8 8.4 79 1.7 WSW 9 13 5 7 1023.3 1023.3 0.0
24/02:00am 11.9 9.9 8.7 81 1.6 W 9 13 5 7 1023.8 1023.8 0.0
24/01:30am 12.3 10.8 9.0 80 1.7 SW 7 11 4 6 1024.0 1024.0 0.0
24/01:00am 13.3 11.1 9.4 77 2.0 NNW 11 15 6 8 1024.1 1024.1 0.0
24/12:30am 14.1 12.6 9.3 73 2.5 W 7 13 4 7 1024.3 1024.3 0.0
24/12:00am 14.5 11.1 9.3 71 2.7 NW 17 24 9 13 1024.3 1024.3 0.0
 
Date/Time
EST
Temp
°C
App
Temp
°C
Dew
Point
°C
Rel
Hum
%
Delta-T
°C
Wind Press
QNH
hPa
Press
MSL
hPa
Rain since
9am
mm
Dir  Spd
km/h
Gust
km/h
Spd
kts
Gust
kts
23/11:30pm 14.9 11.5 9.3 69 2.9 NW 17 24 9 13 1024.4 1024.4 0.0
23/11:00pm 15.0 11.7 9.4 69 2.9 NW 17 28 9 15 1024.4 1024.4 0.0
23/10:30pm 15.3 12.0 9.4 68 3.0 NW 17 24 9 13 1024.7 1024.7 0.0
23/10:00pm 15.8 12.4 9.2 65 3.4 NNW 17 26 9 14 1024.9 1024.9 0.0
23/09:30pm 16.1 12.2 9.3 64 3.5 NW 20 28 11 15 1025.0 1025.0 0.0
23/09:00pm 16.3 12.4 9.3 63 3.6 NW 20 30 11 16 1025.1 1025.1 0.0
23/08:30pm 16.4 12.4 9.1 62 3.8 NW 20 28 11 15 1025.0 1025.0 0.0
23/08:00pm 16.4 12.6 9.1 62 3.8 NNW 19 26 10 14 1024.9 1024.9 0.0
23/07:30pm 16.6 13.5 8.8 60 4.0 NW 15 24 8 13 1024.9 1024.9 0.0
23/07:00pm 16.5 12.7 9.0 61 3.9 NNW 19 28 10 15 1025.0 1025.0 0.0
23/06:30pm 16.6 12.5 8.8 60 4.0 NW 20 35 11 19 1024.9 1024.9 0.0
23/06:00pm 16.8 12.9 8.8 59 4.1 WNW 19 30 10 16 1024.7 1024.7 0.0
23/05:30pm 16.9 14.5 8.6 58 4.3 NW 11 17 6 9 1024.7 1024.7 0.0
23/05:00pm 16.7 15.8 9.4 62 3.8 E 4 9 2 5 1024.7 1024.7 0.0
23/04:30pm 17.1 15.6 9.0 59 4.2 E 7 11 4 6 1024.5 1024.5 0.0
23/04:00pm 18.3 15.5 8.6 53 5.0 NNW 13 20 7 11 1024.2 1024.2 0.0
23/03:30pm 18.3 14.8 8.6 53 5.0 NW 17 28 9 15 1024.0 1024.0 0.0
23/03:00pm 18.6 14.4 8.3 51 5.3 NW 20 30 11 16 1023.9 1023.9 0.0
23/02:30pm 19.0 15.8 8.4 50 5.5 NNW 15 24 8 13 1023.8 1023.8 0.0
23/02:00pm 19.6 15.8 8.9 50 5.6 NW 19 32 10 17 1023.6 1023.6 0.0
23/01:30pm 19.5 17.5 8.5 49 5.7 N 9 15 5 8 1023.9 1023.9 0.0
23/01:00pm 18.6 16.7 7.4 48 5.7 NNW 7 13 4 7 1024.3 1024.3 0.0
23/12:30pm 18.3 15.6 7.4 49 5.5 NNW 11 17 6 9 1024.7 1024.7 0.0
23/12:00pm 18.4 16.0 6.9 47 5.7 NNW 9 13 5 7 1025.4 1025.4 0.0
23/11:30am 16.7 13.9 6.8 52 4.9 N 11 17 6 9 1025.9 1025.9 0.0
23/11:00am 16.5 14.3 6.3 51 5.0 N 7 15 4 8 1026.1 1026.1 0.0
23/10:30am 15.3 12.0 6.6 56 4.2 NNW 13 17 7 9 1026.3 1026.3 0.0
23/10:00am 14.6 11.5 7.2 61 3.6 NNW 13 19 7 10 1026.4 1026.4 0.0
23/09:30am 12.6 7.9 6.2 65 3.0 NNW 20 28 11 15 1026.5 1026.5 0.0
23/09:00am 11.6 7.2 6.5 71 2.4 NNW 19 24 10 13 1026.5 1026.5 0.0
23/08:30am 10.4 6.3 6.2 75 2.0 NNW 17 24 9 13 1026.6 1026.6 0.0
23/08:00am 9.3 6.3 6.0 80 1.5 NNW 11 17 6 9 1026.5 1026.5 0.0
23/07:30am 8.7 5.7 6.0 83 1.2 NNW 11 17 6 9 1026.4 1026.4 0.0
23/07:00am 8.0 4.2 5.6 85 1.1 NW 15 19 8 10 1026.2 1026.2 0.0
23/06:30am 8.2 4.8 5.8 85 1.1 NW 13 22 7 12 1026.1 1026.1 0.0
23/06:00am 8.7 4.0 6.2 84 1.1 NW 20 28 11 15 1026.1 1026.1 0.0
23/05:30am 8.4 4.6 5.9 84 1.1 NW 15 20 8 11 1026.1 1026.1 0.0
23/05:00am 8.2 5.4 5.3 82 1.3 WNW 9 13 5 7 1026.0 1026.0 0.0
23/04:30am 8.4 5.7 5.5 82 1.3 NW 9 13 5 7 1026.0 1026.0 0.0
23/04:00am 8.6 6.3 5.7 82 1.3 NNW 7 13 4 7 1025.8 1025.8 0.0
23/03:30am 8.2 5.8 5.1 81 1.4 W 7 13 4 7 1025.9 1025.9 0.0
23/03:00am 8.9 6.6 5.8 81 1.4 NNW 7 13 4 7 1026.1 1026.1 0.0
23/02:30am 9.2 6.2 5.9 80 1.5 NW 11 17 6 9 1026.2 1026.2 0.0
23/02:00am 10.1 7.2 6.3 77 1.8 NNW 11 19 6 10 1026.2 1026.2 0.0
23/01:30am 9.4 6.0 5.9 79 1.6 WNW 13 19 7 10 1026.4 1026.4 0.0
23/01:00am 9.6 7.4 6.3 80 1.5 NNW 7 13 4 7 1026.4 1026.4 0.0
23/12:30am 10.1 7.2 6.4 78 1.7 NW 11 22 6 12 1026.4 1026.4 0.0
23/12:00am 9.9 7.6 5.9 76 1.8 WNW 7 11 4 6 1026.8 1026.8 0.0
 
Date/Time
EST
Temp
°C
App
Temp
°C
Dew
Point
°C
Rel
Hum
%
Delta-T
°C
Wind Press
QNH
hPa
Press
MSL
hPa
Rain since
9am
mm
Dir  Spd
km/h
Gust
km/h
Spd
kts
Gust
kts
22/11:30pm 9.6 6.9 5.6 76 1.8 W 9 11 5 6 1026.9 1026.9 0.0
22/11:00pm 10.0 7.7 5.8 75 1.9 W 7 11 4 6 1027.0 1027.0 0.0
22/10:30pm 10.2 7.1 5.6 73 2.1 WSW 11 15 6 8 1027.1 1027.1 0.0
22/10:00pm 10.7 8.0 5.7 71 2.3 W 9 13 5 7 1026.9 1026.9 0.0
22/09:30pm 10.8 8.5 5.6 70 2.4 W 7 11 4 6 1026.8 1026.8 0.0
22/09:00pm 11.5 9.4 5.6 67 2.7 E 6 7 3 4 1026.4 1026.4 0.0
22/08:30pm 11.7 8.5 5.3 65 3.0 SW 11 15 6 8 1026.2 1026.2 0.0
22/08:00pm 11.7 9.0 5.6 66 2.8 W 9 17 5 9 1025.8 1025.8 0.0
22/07:30pm 11.8 8.7 5.7 66 2.8 WSW 11 15 6 8 1025.9 1025.9 0.0
22/07:00pm 12.5 9.8 5.7 63 3.2 W 9 13 5 7 1025.5 1025.5 0.0
22/06:30pm 13.6 10.5 5.5 58 3.8 WNW 11 17 6 9 1025.0 1025.0 0.0
22/06:00pm 14.6 11.1 5.4 54 4.3 NW 13 20 7 11 1024.4 1024.4 0.0
22/05:30pm 15.5 12.0 5.4 51 4.8 NW 13 19 7 10 1023.8 1023.8 0.0
22/05:00pm 16.0 12.1 5.3 49 5.1 NW 15 22 8 12 1023.4 1023.4 0.0
22/04:30pm 16.6 11.7 5.3 47 5.4 NW 20 30 11 16 1023.3 1023.3 0.0
22/04:00pm 17.2 11.9 5.2 45 5.7 NW 22 33 12 18 1023.3 1023.3 0.0
22/03:30pm 17.6 12.6 4.6 42 6.2 NW 20 32 11 17 1022.8 1022.8 0.0
22/03:00pm 18.1 13.7 4.7 41 6.4 W 17 28 9 15 1022.9 1022.9 0.0
22/02:30pm 18.1 13.3 4.7 41 6.4 WNW 19 32 10 17 1022.4 1022.4 0.0

Other formats

Comma delimited format used in spreadsheet applications
http://www.bom.gov.au/fwo/IDT60801/IDT60801.94970.axf

JavaScript Object Notation format (JSON) in row-major order
http://www.bom.gov.au/fwo/IDT60801/IDT60801.94970.json

Data quality

Most of these data are generated automatically and are frequently updated. Quality checks on data are not normally performed. It is possible for incorrect values to appear. Refer to information at About Latest Weather Observations and please check the disclaimer before using these data.